| time (UTC) | temp C | wind direction | speed KPH | gust KPH | rain 1hr cm | rain 24hr cm | rain mn cm | humidity % | barometer mb |
| 20260503033032 | 22 | 166 | 8.0 | 12.9 | 0.15 | 1.24 | 1.24 | 89 | 1015.6 |
| 20260503031535 | 22 | 129 | 4.8 | 17.7 | 0.18 | 1.22 | 1.22 | 88 | 1014.8 |
| 20260503030031 | 22 | 102 | 14.5 | 22.5 | 0.36 | 1.22 | 1.22 | 88 | 1013.2 |
| 20260503024533 | 22 | 95 | 11.3 | 20.9 | 0.51 | 1.17 | 1.17 | 89 | 1013.8 |
| 20260503023030 | 22 | 128 | 3.2 | 6.4 | 0.43 | 1.09 | 1.09 | 89 | 1014.5 |
| 20260503021530 | 22 | 109 | 3.2 | 8.0 | 0.38 | 1.04 | 1.04 | 89 | 1014.4 |
| 20260503020031 | 22 | 193 | 4.8 | 12.9 | 0.23 | 0.84 | 0.84 | 87 | 1014.9 |
| 20260503014534 | 22 | 209 | 1.6 | 3.2 | 0.13 | 0.66 | 0.66 | 87 | 1014.7 |
| 20260503013030 | 22 | 164 | 1.6 | 8.0 | 0.15 | 0.66 | 0.66 | 86 | 1014.0 |
| 20260503011532 | 22 | 124 | 4.8 | 8.0 | 0.15 | 0.66 | 0.66 | 87 | 1014.1 |
| 20260503010034 | 22 | 105 | 3.2 | 11.3 | 0.20 | 0.61 | 0.61 | 88 | 1014.1 |
| 20260503004532 | 22 | 233 | 4.8 | 6.4 | 0.28 | 0.51 | 0.51 | 89 | 1014.6 |
| 20260503003047 | 22 | 103 | 3.2 | 6.4 | 0.33 | 0.51 | 0.51 | 89 | 1014.0 |
| 20260503001554 | 22 | 63 | 1.6 | 4.8 | 0.33 | 0.51 | 0.51 | 90 | 1013.8 |
| 20260503000038 | 22 | 300 | 3.2 | 9.7 | 0.23 | 0.41 | 0.41 | 90 | 1013.8 |
| 20260502234536 | 22 | 299 | 8.0 | 16.1 | 0.05 | 0.23 | 0.23 | 88 | 1014.3 |
| 20260502233032 | 22 | 274 | 8.0 | 16.1 | 0.15 | 0.18 | 0.18 | 87 | 1014.1 |
| 20260502231531 | 22 | 291 | 8.0 | 19.3 | 0.18 | 0.18 | 0.18 | 88 | 1013.6 |
| 20260502230036 | 22 | 304 | 12.9 | 22.5 | 0.18 | 0.18 | 0.18 | 89 | 1013.6 |
| 20260502224533 | 22 | 250 | 8.0 | 20.9 | 0.18 | 0.18 | 0.18 | 88 | 1013.3 |
| 20260502223033 | 25 | 304 | 24.1 | 40.2 | 0.00 | 0.00 | 0.00 | 76 | 1013.4 |
| 20260502221541 | 27 | 139 | 11.3 | 22.5 | 0.00 | 0.00 | 0.00 | 85 | 1012.2 |
| 20260502220037 | 27 | 200 | 9.7 | 22.5 | 0.00 | 0.00 | 0.00 | 84 | 1012.2 |
| 20260502214545 | 27 | 185 | 12.9 | 19.3 | 0.00 | 0.00 | 0.00 | 84 | 1012.3 |
| 20260502213036 | 27 | 51 | 9.7 | 20.9 | 0.00 | 0.00 | 0.00 | 83 | 1012.2 |
| 20260502211532 | 27 | 218 | 8.0 | 20.9 | 0.00 | 0.00 | 0.00 | 81 | 1011.9 |
| 20260502210030 | 27 | 160 | 9.7 | 22.5 | 0.00 | 0.00 | 0.00 | 80 | 1011.9 |
| 20260502204531 | 28 | 106 | 11.3 | 20.9 | 0.00 | 0.00 | 0.00 | 80 | 1011.8 |
| 20260502203033 | 28 | 165 | 12.9 | 25.7 | 0.00 | 0.00 | 0.00 | 77 | 1011.8 |
| 20260502201533 | 28 | 191 | 12.9 | 24.1 | 0.00 | 0.00 | 0.00 | 78 | 1011.9 |
| 20260502200032 | 28 | 232 | 14.5 | 24.1 | 0.00 | 0.00 | 0.00 | 76 | 1011.9 |
| 20260502194531 | 28 | 153 | 11.3 | 22.5 | 0.00 | 0.00 | 0.00 | 75 | 1011.8 |
| 20260502193032 | 28 | 206 | 12.9 | 19.3 | 0.00 | 0.00 | 0.00 | 76 | 1011.9 |
| 20260502191535 | 28 | 185 | 9.7 | 17.7 | 0.00 | 0.00 | 0.00 | 76 | 1012.1 |
| 20260502190041 | 28 | 76 | 14.5 | 24.1 | 0.00 | 0.00 | 0.00 | 76 | 1012.3 |
| 20260502184553 | 28 | 227 | 9.7 | 22.5 | 0.00 | 0.00 | 0.00 | 78 | 1012.7 |
| 20260502183038 | 28 | 214 | 16.1 | 25.7 | 0.00 | 0.00 | 0.00 | 78 | 1012.8 |
| 20260502181536 | 28 | 155 | 11.3 | 24.1 | 0.00 | 0.00 | 0.00 | 79 | 1012.9 |
| 20260502163044 | 28 | 110 | 12.9 | 27.4 | 0.00 | 0.00 | 0.00 | 80 | 1013.3 |
| 20260502161536 | 28 | 213 | 9.7 | 24.1 | 0.00 | 0.00 | 0.00 | 81 | 1013.1 |
| 20260502151534 | 27 | 125 | 16.1 | 32.2 | 0.00 | 0.00 | 0.00 | 83 | 1012.9 |
| 20260502123036 | 26 | 186 | 9.7 | 19.3 | 0.00 | 0.00 | 0.00 | 87 | 1012.0 |
| 20260502121535 | 25 | 179 | 8.0 | 20.9 | 0.00 | 0.00 | 0.00 | 89 | 1011.9 |
| 20260502114533 | 25 | 116 | 9.7 | 19.3 | 0.00 | 0.00 | 0.00 | 88 | 1011.8 |
| 20260502113037 | 25 | 87 | 9.7 | 14.5 | 0.00 | 0.00 | 0.00 | 88 | 1011.8 |
| 20260502111534 | 25 | 106 | 8.0 | 17.7 | 0.00 | 0.00 | 0.00 | 88 | 1011.8 |
| 20260502110038 | 25 | 125 | 6.4 | 14.5 | 0.00 | 0.00 | 0.00 | 88 | 1011.9 |
| 20260502104539 | 25 | 91 | 9.7 | 19.3 | 0.00 | 0.00 | 0.00 | 89 | 1011.8 |
| 20260502103032 | 24 | 70 | 6.4 | 16.1 | 0.00 | 0.00 | 0.00 | 90 | 1011.6 |
| 20260502101546 | 24 | 86 | 8.0 | 14.5 | 0.00 | 0.00 | 0.00 | 90 | 1011.8 |
| 20260502071534 | 23 | 149 | 1.6 | 4.8 | 0.00 | 0.00 | 0.00 | 82 | 1012.1 |
| 20260502070044 | 23 | 0 | 0.0 | 0.0 | 0.00 | 0.00 | 0.00 | 85 | 1012.2 |
| 20260502064530 | 23 | 0 | 0.0 | 0.0 | 0.00 | 0.00 | 0.00 | 87 | 1012.1 |
| 20260502063036 | 23 | 0 | 0.0 | 0.0 | 0.00 | 0.00 | 0.00 | 87 | 1012.2 |
| 20260502061533 | 23 | 0 | 0.0 | 0.0 | 0.00 | 0.00 | 0.00 | 86 | 1012.2 |
| 20260502060035 | 23 | 0 | 0.0 | 0.0 | 0.00 | 0.00 | 0.00 | 86 | 1012.2 |
| 20260502054536 | 23 | 0 | 0.0 | 0.0 | 0.00 | 0.00 | 0.00 | 84 | 1012.3 |
| 20260502053031 | 23 | 0 | 0.0 | 0.0 | 0.00 | 0.00 | 0.00 | 84 | 1012.5 |
| 20260502051534 | 23 | 0 | 0.0 | 0.0 | 0.00 | 0.00 | 0.00 | 83 | 1012.6 |
| 20260502050030 | 23 | 0 | 0.0 | 0.0 | 0.00 | 0.00 | 0.00 | 83 | 1012.8 |
| 20260502044530 | 24 | 0 | 0.0 | 0.0 | 0.00 | 0.00 | 0.00 | 83 | 1012.6 |
| 20260502043033 | 24 | 148 | 1.6 | 3.2 | 0.00 | 0.00 | 0.00 | 82 | 1012.6 |
| 20260502041539 | 24 | 195 | 1.6 | 9.7 | 0.00 | 0.00 | 0.00 | 81 | 1012.6 |
| 20260502040041 | 24 | 150 | 3.2 | 8.0 | 0.00 | 0.00 | 0.00 | 81 | 1012.8 |
| 20260502034533 | 24 | 126 | 3.2 | 8.0 | 0.00 | 0.00 | 0.00 | 80 | 1012.8 |